Time;durP1;ratioP1;P1;durP2;ratioP2;P2;SDS_P1;SDS_P2;PMS_P1;PMS_P2;Temp;Humidity;BMP_temperature;BMP_pressure;BME280_temperature;BME280_humidity;BME280_pressure;Samples;Min_cycle;Max_cycle;Signal;HPM_P1;HPM_P2
2022/12/17 13:06:37;;;;;;;8.43;3.60;;;0.70;90.90;;;;;;6243727;23;20036;-73
2022/12/17 13:09:05;;;;;;;8.63;3.92;;;0.70;90.90;;;;;;6243822;23;20011;-73
2022/12/17 13:11:36;;;;;;;7.18;3.40;;;0.70;90.90;;;;;;6190730;23;20392;-73
2022/12/17 13:14:12;;;;;;;7.97;3.65;;;0.70;90.90;;;;;;6243841;23;20079;-73
2022/12/17 13:16:51;;;;;;;7.55;3.60;;;0.70;90.90;;;;;;6244448;23;20035;-73
2022/12/17 13:19:33;;;;;;;7.75;3.33;;;0.60;90.90;;;;;;6244427;23;20000;-73
2022/12/17 13:22:32;;;;;;;7.07;3.42;;;0.60;91.00;;;;;;6244102;23;20028;-73
2022/12/17 13:25:15;;;;;;;7.88;3.40;;;0.60;91.00;;;;;;6244301;23;20000;-73
2022/12/17 13:27:42;;;;;;;7.70;3.17;;;0.70;91.00;;;;;;6244140;23;20034;-72
2022/12/17 13:30:36;;;;;;;6.85;3.28;;;0.60;90.90;;;;;;6243509;23;20034;-73
2022/12/17 13:33:26;;;;;;;8.25;3.45;;;0.70;91.00;;;;;;6243712;23;20447;-73
2022/12/17 13:36:04;;;;;;;8.63;3.78;;;0.70;90.90;;;;;;6244044;23;20008;-73
2022/12/17 13:38:54;;;;;;;9.45;4.20;;;0.60;90.90;;;;;;6243723;23;20004;-73
2022/12/17 13:41:26;;;;;;;8.80;3.60;;;0.60;90.90;;;;;;6243475;23;20134;-73
2022/12/17 13:43:56;;;;;;;7.10;3.63;;;0.60;91.00;;;;;;6243751;23;20617;-73
2022/12/17 13:46:26;;;;;;;6.15;2.95;;;0.60;91.00;;;;;;6244228;23;20051;-73
2022/12/17 13:48:57;;;;;;;8.30;3.78;;;0.70;91.00;;;;;;6243479;23;20413;-72
2022/12/17 13:51:26;;;;;;;8.77;3.33;;;0.70;91.00;;;;;;6244195;23;20016;-73
2022/12/17 13:53:57;;;;;;;6.75;2.92;;;0.60;91.00;;;;;;6243498;23;20009;-73
2022/12/17 13:56:25;;;;;;;8.38;3.38;;;0.50;91.00;;;;;;6192599;23;20333;-73
2022/12/17 13:58:53;;;;;;;7.97;3.33;;;0.50;91.00;;;;;;6244067;23;20405;-73
2022/12/17 14:01:19;;;;;;;6.47;3.03;;;0.50;91.00;;;;;;6243958;23;20014;-73
2022/12/17 14:03:55;;;;;;;7.20;3.03;;;0.40;91.10;;;;;;6243604;23;20016;-73
2022/12/17 14:06:24;;;;;;;5.97;3.05;;;0.40;91.10;;;;;;6243521;23;20024;-73
2022/12/17 14:08:52;;;;;;;6.90;3.03;;;0.40;91.10;;;;;;6243347;23;20054;-73
2022/12/17 14:14:02;;;;;;;5.40;2.50;;;0.40;91.10;;;;;;6243552;23;20016;-73
2022/12/17 14:16:29;;;;;;;5.93;2.63;;;0.40;91.10;;;;;;6213119;23;20015;-73
2022/12/17 14:18:56;;;;;;;4.57;1.95;;;0.50;91.10;;;;;;6216816;23;20376;-73
2022/12/17 14:21:24;;;;;;;5.30;2.45;;;0.50;91.10;;;;;;6214033;23;20067;-73
2022/12/17 14:23:51;;;;;;;5.80;2.42;;;0.40;91.10;;;;;;6215800;23;20376;-73
2022/12/17 14:26:17;;;;;;;4.93;2.10;;;0.40;91.10;;;;;;6243041;23;20004;-73
2022/12/17 14:28:48;;;;;;;6.00;2.30;;;0.40;91.10;;;;;;6216068;23;20000;-72
2022/12/17 14:31:20;;;;;;;5.85;2.53;;;0.30;91.10;;;;;;6243120;23;20008;-73
2022/12/17 14:33:47;;;;;;;7.32;2.45;;;0.30;91.10;;;;;;6243020;23;20000;-72
2022/12/17 14:36:22;;;;;;;5.55;2.50;;;0.30;91.20;;;;;;6243066;23;20456;-72
2022/12/17 14:38:59;;;;;;;6.82;2.70;;;0.20;91.10;;;;;;6191804;23;20632;-73
2022/12/17 14:44:05;;;;;;;4.40;1.90;;;0.20;91.20;;;;;;6244559;23;20475;-73
2022/12/17 14:46:33;;;;;;;6.03;2.38;;;0.20;91.20;;;;;;6244460;23;20030;-73
2022/12/17 14:49:02;;;;;;;4.72;2.22;;;0.20;91.20;;;;;;6245240;23;20842;-72
2022/12/17 14:51:34;;;;;;;4.78;1.92;;;0.20;91.20;;;;;;6245229;23;20440;-73
2022/12/17 14:54:11;;;;;;;;;;;0.20;91.20;;;;;;6245049;23;20440;-73
2022/12/17 14:56:37;;;;;;;4.00;1.42;;;0.30;91.20;;;;;;6244481;23;20327;-73
2022/12/17 14:59:03;;;;;;;4.40;2.00;;;0.20;91.10;;;;;;6244367;23;20004;-73
2022/12/17 15:01:28;;;;;;;5.18;1.90;;;0.20;91.10;;;;;;6244232;23;20004;-73
2022/12/17 15:03:55;;;;;;;7.03;2.92;;;0.20;91.10;;;;;;6189497;23;20000;-73
2022/12/17 15:06:21;;;;;;;6.25;2.72;;;0.10;91.10;;;;;;6244190;23;20001;-73
2022/12/17 15:08:49;;;;;;;9.75;4.13;;;0.00;91.10;;;;;;6217381;23;20075;-73
2022/12/17 15:11:18;;;;;;;8.73;3.90;;;-0.10;91.10;;;;;;6218415;23;20000;-73
2022/12/17 15:13:44;;;;;;;5.95;2.85;;;-0.20;91.20;;;;;;6244272;23;20024;-73
2022/12/17 15:16:10;;;;;;;8.95;3.92;;;-0.20;91.30;;;;;;6244209;23;20023;-72
2022/12/17 15:18:36;;;;;;;8.05;3.70;;;-0.20;91.30;;;;;;6217617;23;20000;-73
2022/12/17 15:21:02;;;;;;;7.50;3.13;;;-0.30;91.30;;;;;;6217591;23;20027;-73
2022/12/17 15:23:29;;;;;;;6.57;2.65;;;-0.30;91.40;;;;;;6244401;23;20459;-73
2022/12/17 15:25:55;;;;;;;5.32;2.42;;;-0.40;91.30;;;;;;6217428;23;20023;-73
2022/12/17 15:28:21;;;;;;;5.93;2.45;;;-0.40;91.40;;;;;;6244147;23;20004;-72
2022/12/17 15:30:48;;;;;;;5.88;2.25;;;-0.40;91.40;;;;;;6244126;23;20083;-72
2022/12/17 15:33:14;;;;;;;5.63;2.20;;;-0.40;91.40;;;;;;6244182;23;20083;-72
2022/12/17 15:35:41;;;;;;;4.88;2.13;;;-0.40;91.40;;;;;;6217295;23;20083;-72
2022/12/17 15:38:07;;;;;;;4.80;2.17;;;-0.30;91.40;;;;;;6217119;23;20492;-72
2022/12/17 15:40:35;;;;;;;5.55;2.20;;;-0.40;91.40;;;;;;6243909;23;20067;-71
2022/12/17 15:45:44;;;;;;;5.07;2.20;;;-0.20;91.30;;;;;;6244108;23;20034;-72
2022/12/17 15:48:11;;;;;;;5.65;2.80;;;-0.30;91.30;;;;;;6244521;23;20004;-71
2022/12/17 15:50:37;;;;;;;5.22;2.10;;;-0.30;91.30;;;;;;6213957;23;20075;-71
2022/12/17 15:53:04;;;;;;;5.22;2.08;;;-0.40;91.30;;;;;;6244031;23;19996;-71
2022/12/17 15:55:30;;;;;;;4.68;2.00;;;-0.30;91.40;;;;;;6244115;23;20375;-72
2022/12/17 15:57:56;;;;;;;5.30;2.58;;;-0.30;91.40;;;;;;6244506;23;20016;-72
2022/12/17 16:00:23;;;;;;;5.75;2.40;;;-0.30;91.30;;;;;;6244266;23;20054;-72
2022/12/17 16:02:49;;;;;;;5.70;2.10;;;-0.40;91.30;;;;;;6244284;23;20091;-72
2022/12/17 16:05:15;;;;;;;5.60;2.70;;;-0.40;91.30;;;;;;6217399;23;20372;-72
2022/12/17 16:07:42;;;;;;;6.65;2.63;;;-0.50;91.30;;;;;;6244427;23;20122;-72
2022/12/17 16:10:10;;;;;;;6.53;2.80;;;-0.40;91.40;;;;;;6243957;23;20003;-71
2022/12/17 16:12:35;;;;;;;6.13;2.50;;;-0.60;91.40;;;;;;6243947;23;20004;-72
2022/12/17 16:15:01;;;;;;;6.90;2.85;;;-0.60;91.40;;;;;;6244035;23;20000;-72
2022/12/17 16:17:27;;;;;;;5.65;2.70;;;-0.60;91.40;;;;;;6244012;23;20087;-72
2022/12/17 16:19:53;;;;;;;5.45;2.42;;;-0.60;91.40;;;;;;6244407;23;20336;-72
2022/12/17 16:22:18;;;;;;;6.57;2.58;;;-0.70;91.40;;;;;;6244058;23;20023;-72
2022/12/17 16:24:44;;;;;;;6.25;2.58;;;-0.70;91.40;;;;;;6244389;23;20008;-72
2022/12/17 16:27:10;;;;;;;6.18;2.75;;;-0.60;91.40;;;;;;6244357;23;20000;-72
2022/12/17 16:29:36;;;;;;;6.07;2.55;;;-0.70;91.40;;;;;;6244375;23;20015;-72
2022/12/17 16:32:01;;;;;;;6.28;2.90;;;-0.70;91.40;;;;;;6244470;23;20004;-72
2022/12/17 16:34:27;;;;;;;7.75;2.92;;;-0.70;91.40;;;;;;6193407;23;20020;-72
2022/12/17 16:36:53;;;;;;;6.22;2.72;;;-0.60;91.40;;;;;;6244421;23;20364;-72
2022/12/17 16:39:19;;;;;;;6.68;2.78;;;-0.70;91.30;;;;;;6244742;23;20011;-72
2022/12/17 16:41:45;;;;;;;6.38;2.42;;;-0.70;91.40;;;;;;6243937;23;20044;-72
2022/12/17 16:44:11;;;;;;;5.65;2.30;;;-0.70;91.40;;;;;;6236782;23;20000;-72
2022/12/17 16:46:40;;;;;;;7.40;2.63;;;-0.70;91.40;;;;;;6214483;23;20298;-72
2022/12/17 16:49:10;;;;;;;8.05;3.08;;;-0.80;91.30;;;;;;6211336;23;19992;-72
2022/12/17 16:51:36;;;;;;;5.90;2.30;;;-0.70;91.30;;;;;;6209891;23;20031;-71
2022/12/17 16:54:05;;;;;;;4.60;2.00;;;-0.80;91.30;;;;;;6214320;23;20468;-72
2022/12/17 16:56:31;;;;;;;4.28;1.90;;;-0.70;91.30;;;;;;6213082;23;20016;-72
2022/12/17 16:58:57;;;;;;;4.63;1.90;;;-0.70;91.30;;;;;;6187045;23;20379;-72
2022/12/17 17:01:25;;;;;;;4.43;1.92;;;-0.60;91.30;;;;;;6210534;23;20016;-72
2022/12/17 17:03:51;;;;;;;4.65;2.05;;;-0.60;91.20;;;;;;6224780;23;20007;-72
2022/12/17 17:06:18;;;;;;;5.50;2.15;;;-0.70;91.30;;;;;;6244184;23;20433;-71
2022/12/17 17:08:44;;;;;;;4.38;2.10;;;-0.70;91.20;;;;;;6243901;23;19996;-72
2022/12/17 17:11:20;;;;;;;5.47;2.25;;;-0.70;91.30;;;;;;6243615;23;20008;-72
2022/12/17 17:13:48;;;;;;;4.20;2.20;;;-0.70;91.30;;;;;;6215702;23;20008;-72
2022/12/17 17:16:15;;;;;;;4.55;2.15;;;-0.70;91.30;;;;;;6244406;23;20027;-72
2022/12/17 17:18:41;;;;;;;5.03;2.08;;;-0.70;91.40;;;;;;6243767;23;20424;-71
2022/12/17 17:21:26;;;;;;;4.90;2.00;;;-0.60;91.40;;;;;;6243954;23;20014;-71
2022/12/17 17:23:56;;;;;;;4.35;2.00;;;-0.70;91.40;;;;;;6243715;23;20006;-72
2022/12/17 17:26:22;;;;;;;3.95;1.88;;;-0.70;91.30;;;;;;6214088;23;20011;-71
2022/12/17 17:28:48;;;;;;;4.07;1.90;;;-0.70;91.30;;;;;;6243598;23;19996;-72
2022/12/17 17:31:15;;;;;;;3.67;1.63;;;-0.70;91.30;;;;;;6243911;23;20042;-72
2022/12/17 17:33:43;;;;;;;4.57;1.98;;;-0.70;91.30;;;;;;6243730;23;20007;-72
2022/12/17 17:36:12;;;;;;;5.03;1.80;;;-0.70;91.30;;;;;;6244232;23;20079;-71
2022/12/17 17:38:39;;;;;;;4.47;1.80;;;-0.70;91.30;;;;;;6243573;23;20448;-72
2022/12/17 17:41:08;;;;;;;3.38;1.50;;;-0.70;91.30;;;;;;6243718;23;20015;-71
2022/12/17 17:43:33;;;;;;;3.28;1.63;;;-0.70;91.30;;;;;;6243525;23;20012;-72
2022/12/17 17:46:09;;;;;;;4.25;1.80;;;-0.80;91.30;;;;;;6243821;23;20001;-72
2022/12/17 17:48:35;;;;;;;5.28;1.73;;;-0.80;91.40;;;;;;6243426;23;20083;-72
2022/12/17 17:51:05;;;;;;;5.03;2.10;;;-0.80;91.30;;;;;;6216684;23;20036;-72
2022/12/17 17:53:30;;;;;;;2.83;1.48;;;-0.80;91.40;;;;;;6243550;23;20082;-72
2022/12/17 17:56:06;;;;;;;3.42;1.73;;;-0.90;91.40;;;;;;6243873;23;20031;-71
2022/12/17 17:58:33;;;;;;;3.10;1.35;;;-0.80;91.40;;;;;;6243747;23;20054;-72
2022/12/17 18:01:05;;;;;;;4.07;1.63;;;-0.80;91.40;;;;;;6243446;23;20004;-72
2022/12/17 18:03:31;;;;;;;3.92;1.50;;;-0.80;91.40;;;;;;6243817;23;20004;-72
2022/12/17 18:06:00;;;;;;;3.85;1.80;;;-0.90;91.40;;;;;;6243632;23;20007;-72
2022/12/17 18:08:29;;;;;;;3.53;1.40;;;-0.80;91.40;;;;;;6243730;23;20004;-72
2022/12/17 18:10:57;;;;;;;3.13;1.30;;;-0.80;91.40;;;;;;6216152;23;20081;-72
2022/12/17 18:16:03;;;;;;;3.22;1.63;;;-0.90;91.40;;;;;;6243555;23;20073;-72
2022/12/17 18:18:29;;;;;;;3.13;1.60;;;-0.90;91.40;;;;;;6243476;23;20039;-72
2022/12/17 18:21:04;;;;;;;3.53;1.67;;;-1.00;91.30;;;;;;6243500;23;20052;-72
2022/12/17 18:23:30;;;;;;;4.18;1.80;;;-1.00;91.40;;;;;;6243419;23;20004;-72
2022/12/17 18:26:02;;;;;;;3.88;1.55;;;-1.10;91.50;;;;;;6243440;23;20065;-72
2022/12/17 18:28:28;;;;;;;3.97;1.50;;;-1.10;91.50;;;;;;6243286;23;20006;-72
2022/12/17 18:30:53;;;;;;;4.55;1.70;;;-1.10;91.50;;;;;;6243732;23;20361;-72
2022/12/17 18:33:19;;;;;;;3.80;1.50;;;-1.10;91.70;;;;;;6243527;23;20027;-72
2022/12/17 18:35:45;;;;;;;2.80;1.50;;;-1.10;91.50;;;;;;6243184;23;20089;-71
2022/12/17 18:38:11;;;;;;;4.35;1.63;;;-1.10;91.40;;;;;;6243583;23;20004;-72
2022/12/17 18:40:36;;;;;;;4.10;1.50;;;-1.10;91.50;;;;;;6212669;23;20017;-73
2022/12/17 18:45:45;;;;;;;3.20;1.42;;;-1.20;91.50;;;;;;6243274;23;20328;-72
2022/12/17 18:48:10;;;;;;;3.58;1.52;;;-1.30;91.40;;;;;;6242735;23;20035;-73
2022/12/17 18:50:36;;;;;;;2.78;1.15;;;-1.30;91.50;;;;;;6215952;23;20008;-72
2022/12/17 18:53:01;;;;;;;3.95;1.48;;;-1.30;91.60;;;;;;6211210;23;20005;-72
2022/12/17 18:55:27;;;;;;;2.28;1.10;;;-1.20;91.60;;;;;;6241849;23;19993;-72
2022/12/17 18:57:53;;;;;;;4.60;1.60;;;-1.20;91.50;;;;;;6216871;23;20005;-72
2022/12/17 19:00:19;;;;;;;2.72;1.30;;;-1.20;91.50;;;;;;6243219;23;20003;-72
2022/12/17 19:02:44;;;;;;;3.85;1.42;;;-1.20;91.50;;;;;;6243016;23;20062;-72
2022/12/17 19:05:10;;;;;;;2.72;1.48;;;-1.20;91.40;;;;;;6216005;23;20000;-72
2022/12/17 19:07:36;;;;;;;3.10;1.40;;;-1.20;91.40;;;;;;6243172;23;20443;-72
2022/12/17 19:10:01;;;;;;;2.50;1.30;;;-1.20;91.40;;;;;;6243136;23;20004;-72
2022/12/17 19:12:27;;;;;;;3.13;1.40;;;-1.20;91.40;;;;;;6242640;23;20087;-72
2022/12/17 19:14:53;;;;;;;3.70;1.45;;;-1.20;91.40;;;;;;6242867;23;20000;-72
2022/12/17 19:17:18;;;;;;;2.72;1.23;;;-1.30;91.40;;;;;;6216557;23;20329;-72
2022/12/17 19:19:44;;;;;;;3.85;1.38;;;-1.20;91.40;;;;;;6216277;23;20000;-72
2022/12/17 19:22:10;;;;;;;2.85;1.27;;;-1.20;91.40;;;;;;6216039;23;20012;-73
2022/12/17 19:24:35;;;;;;;2.88;1.45;;;-1.20;91.40;;;;;;6243500;23;20011;-72
2022/12/17 19:27:01;;;;;;;3.33;1.30;;;-1.20;91.50;;;;;;6217799;23;20083;-72
2022/12/17 19:29:26;;;;;;;2.20;1.08;;;-1.30;91.40;;;;;;6244365;23;20024;-72
2022/12/17 19:31:52;;;;;;;3.22;1.38;;;-1.20;91.50;;;;;;6244017;23;20062;-72
2022/12/17 19:34:18;;;;;;;2.83;1.05;;;-1.30;91.50;;;;;;6244492;23;20000;-72
2022/12/17 19:36:45;;;;;;;3.38;1.27;;;-1.20;91.50;;;;;;6243709;23;20001;-72
2022/12/17 19:39:13;;;;;;;2.10;1.00;;;-1.30;91.40;;;;;;6244422;23;20010;-72
2022/12/17 19:41:39;;;;;;;2.35;1.05;;;-1.30;91.50;;;;;;6214384;23;20001;-72
2022/12/17 19:44:09;;;;;;;1.83;0.93;;;-1.30;91.50;;;;;;6244405;23;20050;-72
2022/12/17 19:46:35;;;;;;;3.47;1.25;;;-1.40;91.40;;;;;;6244671;23;20087;-72
2022/12/17 19:49:02;;;;;;;4.30;1.50;;;-1.50;91.40;;;;;;6243703;23;20028;-72
2022/12/17 19:51:29;;;;;;;4.28;1.30;;;-1.60;91.40;;;;;;6243970;23;20131;-72
2022/12/17 19:53:55;;;;;;;3.67;1.70;;;-1.60;91.50;;;;;;6244161;23;20004;-72
2022/12/17 19:56:23;;;;;;;3.67;1.45;;;-1.70;91.60;;;;;;6217082;23;20500;-72
2022/12/17 19:58:51;;;;;;;3.35;1.48;;;-1.70;91.70;;;;;;6192881;23;20012;-72
2022/12/17 20:01:20;;;;;;;4.55;1.58;;;-1.80;91.70;;;;;;6216785;23;20332;-72
2022/12/17 20:03:47;;;;;;;3.00;1.20;;;-1.80;91.70;;;;;;6243809;23;20284;-72
2022/12/17 20:06:14;;;;;;;3.08;1.17;;;-1.80;91.70;;;;;;6244268;23;20001;-72
2022/12/17 20:08:40;;;;;;;3.45;1.38;;;-1.70;91.70;;;;;;6237771;23;20023;-73
2022/12/17 20:13:56;;;;;;;3.40;1.40;;;-1.80;91.60;;;;;;6244072;23;20012;-72
2022/12/17 20:16:22;;;;;;;2.70;1.02;;;-1.80;91.70;;;;;;6243995;23;20008;-73
2022/12/17 20:18:48;;;;;;;2.42;1.10;;;-1.90;91.70;;;;;;6243989;23;20379;-72
2022/12/17 20:21:14;;;;;;;3.33;1.40;;;-1.90;91.70;;;;;;6216876;23;20009;-72
2022/12/17 20:23:40;;;;;;;2.72;1.00;;;-1.90;91.70;;;;;;6244518;23;20103;-72
2022/12/17 20:26:09;;;;;;;3.72;1.20;;;-1.80;91.70;;;;;;6243731;23;20070;-73
2022/12/17 20:28:35;;;;;;;2.97;1.23;;;-1.80;91.60;;;;;;6243694;23;20005;-72
2022/12/17 20:31:02;;;;;;;3.28;1.40;;;-1.80;91.60;;;;;;6243851;23;20489;-72
2022/12/17 20:33:28;;;;;;;1.88;1.00;;;-1.90;91.60;;;;;;6243888;23;20007;-72
2022/12/17 20:35:54;;;;;;;4.38;1.40;;;-1.80;91.60;;;;;;6243285;23;20000;-72
2022/12/17 20:38:20;;;;;;;2.50;0.98;;;-1.80;91.60;;;;;;6244289;23;20043;-73
2022/12/17 20:40:46;;;;;;;2.03;1.15;;;-1.90;91.50;;;;;;6216969;23;20000;-72
2022/12/17 20:43:12;;;;;;;2.65;1.20;;;-1.80;91.60;;;;;;6244009;23;20005;-72
2022/12/17 20:45:37;;;;;;;4.57;1.45;;;-1.80;91.60;;;;;;6244162;23;20005;-73
2022/12/17 20:48:03;;;;;;;3.45;1.42;;;-1.80;91.50;;;;;;6217645;23;20011;-72
2022/12/17 20:50:29;;;;;;;3.67;1.50;;;-1.90;91.50;;;;;;6244314;23;20417;-73
2022/12/17 20:52:54;;;;;;;3.78;1.58;;;-2.00;91.60;;;;;;6216432;23;20095;-72
2022/12/17 20:55:20;;;;;;;5.05;1.77;;;-2.00;91.60;;;;;;6240932;23;20004;-73
2022/12/17 20:57:46;;;;;;;4.50;1.90;;;-2.10;91.60;;;;;;6244318;23;20421;-72
2022/12/17 21:00:12;;;;;;;3.67;1.40;;;-2.20;91.60;;;;;;6216880;23;20008;-72
2022/12/17 21:02:37;;;;;;;4.60;1.67;;;-2.20;91.70;;;;;;6243618;23;20004;-72
2022/12/17 21:05:04;;;;;;;3.95;1.52;;;-2.20;91.70;;;;;;6244407;23;20461;-72
2022/12/17 21:07:29;;;;;;;2.80;1.23;;;-2.10;91.80;;;;;;6244201;23;20340;-72
2022/12/17 21:09:55;;;;;;;3.28;1.33;;;-2.10;91.70;;;;;;6244043;23;20083;-72
2022/12/17 21:12:21;;;;;;;2.97;1.17;;;-2.10;91.70;;;;;;6244390;23;20369;-72
2022/12/17 21:14:47;;;;;;;2.78;1.08;;;-2.10;91.70;;;;;;6244087;23;20364;-72
2022/12/17 21:17:13;;;;;;;2.97;1.20;;;-2.20;91.60;;;;;;6243887;23;20298;-72
2022/12/17 21:19:39;;;;;;;2.05;0.75;;;-2.20;91.60;;;;;;6243612;23;20004;-72
2022/12/17 21:22:06;;;;;;;4.97;1.30;;;-2.10;91.60;;;;;;6244072;23;20015;-72
2022/12/17 21:24:32;;;;;;;2.97;1.35;;;-2.10;91.60;;;;;;6243927;23;20000;-72
2022/12/17 21:26:57;;;;;;;2.40;1.10;;;-2.10;91.60;;;;;;6244218;23;20004;-72
2022/12/17 21:29:23;;;;;;;3.45;1.48;;;-2.00;91.60;;;;;;6216801;23;20043;-72
2022/12/17 21:31:50;;;;;;;2.25;1.38;;;-2.00;91.60;;;;;;6243630;23;20050;-72
2022/12/17 21:34:21;;;;;;;2.78;1.20;;;-2.10;91.60;;;;;;6243772;23;20011;-72
2022/12/17 21:36:48;;;;;;;2.90;1.17;;;-2.10;91.60;;;;;;6244447;23;20427;-72
2022/12/17 21:39:14;;;;;;;3.38;1.05;;;-2.00;91.70;;;;;;6216787;23;20074;-72
2022/12/17 21:41:42;;;;;;;2.55;1.10;;;-2.00;91.60;;;;;;6243521;23;20079;-72
2022/12/17 21:44:10;;;;;;;2.17;1.17;;;-2.10;91.60;;;;;;6244512;23;20416;-72
2022/12/17 21:46:36;;;;;;;2.35;0.82;;;-2.00;91.60;;;;;;6243956;23;20026;-72
2022/12/17 21:49:03;;;;;;;5.00;1.42;;;-2.10;91.60;;;;;;6244075;23;20052;-72
2022/12/17 21:51:30;;;;;;;2.63;1.13;;;-2.10;91.60;;;;;;6217290;23;20073;-72
2022/12/17 21:53:58;;;;;;;2.28;0.90;;;-2.00;91.60;;;;;;6243589;23;20054;-72
2022/12/17 21:56:24;;;;;;;2.72;1.05;;;-2.00;91.60;;;;;;6243503;23;20004;-72
2022/12/17 21:58:55;;;;;;;3.25;1.27;;;-2.10;91.60;;;;;;6243278;23;20001;-72
2022/12/17 22:01:24;;;;;;;2.70;1.00;;;-2.10;91.60;;;;;;6213653;23;20031;-72
2022/12/17 22:03:51;;;;;;;3.60;1.20;;;-2.10;91.60;;;;;;6244142;23;20004;-72
2022/12/17 22:06:18;;;;;;;2.95;1.27;;;-2.10;91.60;;;;;;6244042;23;20443;-72
2022/12/17 22:08:45;;;;;;;2.30;0.90;;;-2.10;91.60;;;;;;6243504;23;20023;-72
2022/12/17 22:11:12;;;;;;;3.63;1.25;;;-2.20;91.50;;;;;;6186745;23;20021;-72
2022/12/17 22:16:21;;;;;;;3.15;1.23;;;-2.20;91.90;;;;;;6243641;23;20379;-72
2022/12/17 22:18:47;;;;;;;2.75;1.30;;;-2.30;91.60;;;;;;6243889;23;20000;-72
2022/12/17 22:21:12;;;;;;;3.05;1.13;;;-2.30;91.70;;;;;;6216539;23;20020;-72
2022/12/17 22:23:38;;;;;;;3.33;1.30;;;-2.30;91.70;;;;;;6211609;23;20317;-72
2022/12/17 22:26:09;;;;;;;2.88;1.25;;;-2.30;91.70;;;;;;6243331;23;20008;-72
2022/12/17 22:28:35;;;;;;;4.40;1.30;;;-2.40;91.70;;;;;;6243402;23;20510;-72
2022/12/17 22:33:48;;;;;;;3.65;1.33;;;-2.40;91.70;;;;;;6185240;23;20455;-72
2022/12/17 22:36:13;;;;;;;2.92;1.25;;;-2.50;91.70;;;;;;6212047;23;20013;-72
2022/12/17 22:38:39;;;;;;;3.00;1.10;;;-2.50;91.70;;;;;;6212694;23;20000;-72
2022/12/17 22:41:06;;;;;;;3.83;1.40;;;-2.60;91.80;;;;;;6212795;23;20031;-72
2022/12/17 22:43:32;;;;;;;2.70;1.15;;;-2.60;91.80;;;;;;6186022;23;20031;-72
2022/12/17 22:46:01;;;;;;;2.38;0.98;;;-2.60;91.80;;;;;;6213395;23;20008;-72
2022/12/17 22:48:27;;;;;;;2.50;1.17;;;-2.70;91.80;;;;;;6213282;23;20007;-72
2022/12/17 22:50:53;;;;;;;2.17;0.93;;;-2.70;91.80;;;;;;6212729;23;20004;-72
2022/12/17 22:53:20;;;;;;;3.28;1.33;;;-2.80;91.80;;;;;;6212780;23;20001;-72
2022/12/17 22:55:46;;;;;;;3.17;1.05;;;-2.80;91.80;;;;;;6185952;23;20008;-72
2022/12/17 22:58:12;;;;;;;3.25;1.10;;;-2.80;91.90;;;;;;6212752;23;19997;-72
2022/12/17 23:00:37;;;;;;;3.28;1.00;;;-2.80;91.80;;;;;;6214204;23;20135;-73
2022/12/17 23:03:03;;;;;;;3.90;1.35;;;-2.80;91.90;;;;;;6214513;23;20012;-72
2022/12/17 23:05:29;;;;;;;3.00;1.20;;;-2.90;91.80;;;;;;6213897;23;20321;-72
2022/12/17 23:07:56;;;;;;;2.28;1.17;;;-2.90;91.90;;;;;;6213868;23;20008;-72
2022/12/17 23:10:23;;;;;;;3.20;1.30;;;-3.00;91.90;;;;;;6214452;23;20361;-72
2022/12/17 23:12:49;;;;;;;3.45;1.25;;;-3.00;91.90;;;;;;6187212;23;20005;-72
2022/12/17 23:15:24;;;;;;;2.95;1.25;;;-3.00;91.90;;;;;;6214350;23;20433;-72
2022/12/17 23:17:52;;;;;;;2.30;1.00;;;-3.10;91.90;;;;;;6214121;23;20001;-72
2022/12/17 23:20:18;;;;;;;3.65;1.27;;;-3.10;91.90;;;;;;6214174;23;20008;-72
2022/12/17 23:22:45;;;;;;;2.25;1.08;;;-3.10;91.90;;;;;;6214109;23;20417;-72
2022/12/17 23:25:11;;;;;;;3.53;1.30;;;-3.20;91.90;;;;;;6214249;23;20051;-72
2022/12/17 23:27:36;;;;;;;2.38;1.20;;;-3.20;91.90;;;;;;6213871;23;20417;-72
2022/12/17 23:30:06;;;;;;;2.13;1.10;;;-3.20;91.90;;;;;;6213789;23;20004;-72
2022/12/17 23:32:32;;;;;;;4.93;1.40;;;-3.30;91.90;;;;;;6214209;23;20008;-72
2022/12/17 23:34:57;;;;;;;3.70;1.38;;;-3.30;91.90;;;;;;6214276;23;20326;-72
2022/12/17 23:37:23;;;;;;;2.55;1.00;;;-3.30;91.90;;;;;;6214185;23;20084;-72
2022/12/17 23:39:48;;;;;;;2.65;0.95;;;-3.30;91.90;;;;;;6187552;23;20001;-72
2022/12/17 23:42:14;;;;;;;2.35;1.08;;;-3.30;91.90;;;;;;6213704;23;20043;-72
2022/12/17 23:44:40;;;;;;;3.22;1.20;;;-3.40;91.90;;;;;;6213728;23;20043;-72
2022/12/17 23:47:05;;;;;;;3.42;1.10;;;-3.40;91.90;;;;;;6214283;23;20035;-72
2022/12/17 23:49:31;;;;;;;3.42;1.40;;;-3.40;91.90;;;;;;6182229;23;20393;-72
2022/12/17 23:51:57;;;;;;;3.28;1.30;;;-3.50;91.90;;;;;;6213644;23;20019;-72
2022/12/17 23:54:24;;;;;;;4.57;1.35;;;-3.40;91.90;;;;;;6214113;23;20131;-72
2022/12/17 23:56:49;;;;;;;3.88;1.20;;;-3.50;91.90;;;;;;6214253;23;20005;-72
2022/12/17 23:59:15;;;;;;;3.38;1.38;;;-3.50;91.90;;;;;;6214413;23;20004;-72
